sensor_id;sensor_type;location;lat;lon;timestamp;P1;durP1;ratioP1;P2;durP2;ratioP2
37885;SDS011;23726;52.520;13.434;2022-09-13T00:00:16;4.32;;;3.90;;
37885;SDS011;23726;52.520;13.434;2022-09-13T00:02:42;3.92;;;3.60;;
37885;SDS011;23726;52.520;13.434;2022-09-13T00:05:08;4.60;;;3.70;;
37885;SDS011;23726;52.520;13.434;2022-09-13T00:07:33;5.25;;;3.90;;
37885;SDS011;23726;52.520;13.434;2022-09-13T00:09:59;4.47;;;4.00;;
37885;SDS011;23726;52.520;13.434;2022-09-13T00:12:25;4.30;;;3.80;;
37885;SDS011;23726;52.520;13.434;2022-09-13T00:14:50;4.70;;;3.60;;
37885;SDS011;23726;52.520;13.434;2022-09-13T00:17:16;4.38;;;3.95;;
37885;SDS011;23726;52.520;13.434;2022-09-13T00:19:42;5.90;;;4.18;;
37885;SDS011;23726;52.520;13.434;2022-09-13T00:22:08;3.90;;;3.60;;
37885;SDS011;23726;52.520;13.434;2022-09-13T00:24:33;4.53;;;3.78;;
37885;SDS011;23726;52.520;13.434;2022-09-13T00:27:00;4.22;;;3.83;;
37885;SDS011;23726;52.520;13.434;2022-09-13T00:29:26;4.43;;;3.63;;
37885;SDS011;23726;52.520;13.434;2022-09-13T00:31:51;3.80;;;3.40;;
37885;SDS011;23726;52.520;13.434;2022-09-13T00:34:17;3.97;;;3.63;;
37885;SDS011;23726;52.520;13.434;2022-09-13T00:36:42;4.22;;;3.83;;
37885;SDS011;23726;52.520;13.434;2022-09-13T00:39:08;4.65;;;3.40;;
37885;SDS011;23726;52.520;13.434;2022-09-13T00:41:34;4.72;;;3.30;;
37885;SDS011;23726;52.520;13.434;2022-09-13T00:44:00;3.78;;;3.45;;
37885;SDS011;23726;52.520;13.434;2022-09-13T00:49:16;4.15;;;3.75;;
37885;SDS011;23726;52.520;13.434;2022-09-13T00:51:44;4.00;;;3.58;;
37885;SDS011;23726;52.520;13.434;2022-09-13T00:54:15;3.92;;;3.55;;
37885;SDS011;23726;52.520;13.434;2022-09-13T00:56:44;3.90;;;3.60;;
37885;SDS011;23726;52.520;13.434;2022-09-13T00:59:16;5.38;;;3.38;;
37885;SDS011;23726;52.520;13.434;2022-09-13T01:01:48;3.80;;;3.50;;
37885;SDS011;23726;52.520;13.434;2022-09-13T01:04:17;3.70;;;3.40;;
37885;SDS011;23726;52.520;13.434;2022-09-13T01:06:46;3.92;;;3.55;;
37885;SDS011;23726;52.520;13.434;2022-09-13T01:09:13;4.35;;;3.25;;
37885;SDS011;23726;52.520;13.434;2022-09-13T01:11:41;3.90;;;3.55;;
37885;SDS011;23726;52.520;13.434;2022-09-13T01:14:17;3.58;;;3.28;;
37885;SDS011;23726;52.520;13.434;2022-09-13T01:16:46;3.30;;;3.00;;
37885;SDS011;23726;52.520;13.434;2022-09-13T01:19:12;4.03;;;3.63;;
37885;SDS011;23726;52.520;13.434;2022-09-13T01:21:44;4.30;;;3.28;;
37885;SDS011;23726;52.520;13.434;2022-09-13T01:24:37;3.83;;;3.50;;
37885;SDS011;23726;52.520;13.434;2022-09-13T01:38:18;4.10;;;3.65;;
37885;SDS011;23726;52.520;13.434;2022-09-13T01:41:05;4.15;;;3.75;;
37885;SDS011;23726;52.520;13.434;2022-09-13T01:52:21;3.70;;;3.40;;
37885;SDS011;23726;52.520;13.434;2022-09-13T01:55:12;3.42;;;3.13;;
37885;SDS011;23726;52.520;13.434;2022-09-13T01:57:51;3.42;;;3.08;;
37885;SDS011;23726;52.520;13.434;2022-09-13T02:00:27;4.35;;;3.17;;
37885;SDS011;23726;52.520;13.434;2022-09-13T02:03:05;9.02;;;3.65;;
37885;SDS011;23726;52.520;13.434;2022-09-13T02:05:46;4.30;;;3.67;;
37885;SDS011;23726;52.520;13.434;2022-09-13T02:08:18;4.22;;;3.20;;
37885;SDS011;23726;52.520;13.434;2022-09-13T02:11:11;4.15;;;3.53;;
37885;SDS011;23726;52.520;13.434;2022-09-13T02:13:42;3.70;;;3.40;;
37885;SDS011;23726;52.520;13.434;2022-09-13T02:16:16;4.57;;;3.40;;
37885;SDS011;23726;52.520;13.434;2022-09-13T02:18:48;3.47;;;3.17;;
37885;SDS011;23726;52.520;13.434;2022-09-13T02:21:26;3.83;;;3.10;;
37885;SDS011;23726;52.520;13.434;2022-09-13T02:24:17;3.85;;;3.47;;
37885;SDS011;23726;52.520;13.434;2022-09-13T02:26:44;3.70;;;3.28;;
37885;SDS011;23726;52.520;13.434;2022-09-13T02:29:13;3.58;;;3.28;;
37885;SDS011;23726;52.520;13.434;2022-09-13T02:31:55;3.55;;;3.25;;
37885;SDS011;23726;52.520;13.434;2022-09-13T02:34:27;3.80;;;3.50;;
37885;SDS011;23726;52.520;13.434;2022-09-13T02:36:57;3.63;;;3.00;;
37885;SDS011;23726;52.520;13.434;2022-09-13T02:39:26;5.55;;;3.30;;
37885;SDS011;23726;52.520;13.434;2022-09-13T02:41:59;3.47;;;3.17;;
37885;SDS011;23726;52.520;13.434;2022-09-13T02:44:37;3.60;;;3.30;;
37885;SDS011;23726;52.520;13.434;2022-09-13T02:52:56;3.75;;;3.45;;
37885;SDS011;23726;52.520;13.434;2022-09-13T03:01:21;5.10;;;3.60;;
37885;SDS011;23726;52.520;13.434;2022-09-13T03:03:47;3.47;;;3.17;;
37885;SDS011;23726;52.520;13.434;2022-09-13T03:06:25;4.78;;;3.33;;
37885;SDS011;23726;52.520;13.434;2022-09-13T03:08:53;10.43;;;3.28;;
37885;SDS011;23726;52.520;13.434;2022-09-13T03:11:41;3.60;;;3.03;;
37885;SDS011;23726;52.520;13.434;2022-09-13T03:17:07;3.70;;;3.40;;
37885;SDS011;23726;52.520;13.434;2022-09-13T03:19:47;3.75;;;3.33;;
37885;SDS011;23726;52.520;13.434;2022-09-13T03:22:43;3.45;;;3.15;;
37885;SDS011;23726;52.520;13.434;2022-09-13T03:25:28;3.80;;;3.50;;
37885;SDS011;23726;52.520;13.434;2022-09-13T03:28:13;3.63;;;3.20;;
37885;SDS011;23726;52.520;13.434;2022-09-13T03:31:03;8.13;;;3.60;;
37885;SDS011;23726;52.520;13.434;2022-09-13T03:36:27;3.72;;;3.33;;
37885;SDS011;23726;52.520;13.434;2022-09-13T03:39:17;3.42;;;3.13;;
37885;SDS011;23726;52.520;13.434;2022-09-13T03:42:10;4.22;;;3.33;;
37885;SDS011;23726;52.520;13.434;2022-09-13T03:44:41;3.70;;;3.40;;
37885;SDS011;23726;52.520;13.434;2022-09-13T03:47:10;4.20;;;3.80;;
37885;SDS011;23726;52.520;13.434;2022-09-13T03:49:37;4.85;;;3.55;;
37885;SDS011;23726;52.520;13.434;2022-09-13T03:52:05;4.13;;;3.33;;
37885;SDS011;23726;52.520;13.434;2022-09-13T03:54:31;3.70;;;3.40;;
37885;SDS011;23726;52.520;13.434;2022-09-13T03:57:07;6.43;;;3.83;;
37885;SDS011;23726;52.520;13.434;2022-09-13T03:59:37;6.80;;;3.78;;
37885;SDS011;23726;52.520;13.434;2022-09-13T04:02:06;4.03;;;3.67;;
37885;SDS011;23726;52.520;13.434;2022-09-13T04:04:35;4.23;;;3.57;;
37885;SDS011;23726;52.520;13.434;2022-09-13T04:07:05;5.60;;;3.80;;
37885;SDS011;23726;52.520;13.434;2022-09-13T04:09:31;4.97;;;3.42;;
37885;SDS011;23726;52.520;13.434;2022-09-13T04:11:57;3.60;;;3.30;;
37885;SDS011;23726;52.520;13.434;2022-09-13T04:14:22;3.75;;;3.45;;
37885;SDS011;23726;52.520;13.434;2022-09-13T04:16:51;3.67;;;3.35;;
37885;SDS011;23726;52.520;13.434;2022-09-13T04:19:21;3.30;;;3.10;;
37885;SDS011;23726;52.520;13.434;2022-09-13T04:21:48;4.13;;;3.63;;
37885;SDS011;23726;52.520;13.434;2022-09-13T04:24:14;4.63;;;4.15;;
37885;SDS011;23726;52.520;13.434;2022-09-13T04:26:40;5.22;;;4.72;;
37885;SDS011;23726;52.520;13.434;2022-09-13T04:29:07;9.05;;;6.75;;
37885;SDS011;23726;52.520;13.434;2022-09-13T04:31:33;7.60;;;5.43;;
37885;SDS011;23726;52.520;13.434;2022-09-13T04:33:58;5.03;;;4.55;;
37885;SDS011;23726;52.520;13.434;2022-09-13T04:36:24;5.95;;;5.35;;
37885;SDS011;23726;52.520;13.434;2022-09-13T04:38:51;8.13;;;6.22;;
37885;SDS011;23726;52.520;13.434;2022-09-13T04:41:17;6.60;;;5.55;;
37885;SDS011;23726;52.520;13.434;2022-09-13T04:43:42;7.45;;;5.72;;
37885;SDS011;23726;52.520;13.434;2022-09-13T04:46:09;6.32;;;5.53;;
37885;SDS011;23726;52.520;13.434;2022-09-13T04:48:34;6.80;;;6.10;;
37885;SDS011;23726;52.520;13.434;2022-09-13T04:51:01;7.07;;;6.38;;
37885;SDS011;23726;52.520;13.434;2022-09-13T04:53:29;9.05;;;6.50;;
37885;SDS011;23726;52.520;13.434;2022-09-13T04:56:01;9.10;;;6.95;;
37885;SDS011;23726;52.520;13.434;2022-09-13T04:58:31;7.07;;;6.15;;
37885;SDS011;23726;52.520;13.434;2022-09-13T05:01:04;8.40;;;6.60;;
37885;SDS011;23726;52.520;13.434;2022-09-13T05:03:34;7.25;;;6.10;;
37885;SDS011;23726;52.520;13.434;2022-09-13T05:06:03;12.38;;;8.52;;
37885;SDS011;23726;52.520;13.434;2022-09-13T05:08:33;10.43;;;8.95;;
37885;SDS011;23726;52.520;13.434;2022-09-13T05:10:59;8.55;;;7.65;;
37885;SDS011;23726;52.520;13.434;2022-09-13T05:13:25;10.13;;;6.97;;
37885;SDS011;23726;52.520;13.434;2022-09-13T05:15:57;9.23;;;8.23;;
37885;SDS011;23726;52.520;13.434;2022-09-13T05:18:27;6.75;;;6.05;;
37885;SDS011;23726;52.520;13.434;2022-09-13T05:20:54;8.15;;;7.25;;
37885;SDS011;23726;52.520;13.434;2022-09-13T05:23:21;6.90;;;6.20;;
37885;SDS011;23726;52.520;13.434;2022-09-13T05:25:56;8.45;;;6.85;;
37885;SDS011;23726;52.520;13.434;2022-09-13T05:28:23;11.35;;;9.65;;
37885;SDS011;23726;52.520;13.434;2022-09-13T05:30:54;10.43;;;8.07;;
37885;SDS011;23726;52.520;13.434;2022-09-13T05:33:21;8.80;;;7.00;;
37885;SDS011;23726;52.520;13.434;2022-09-13T05:35:46;7.53;;;6.53;;
37885;SDS011;23726;52.520;13.434;2022-09-13T05:38:12;7.93;;;6.90;;
37885;SDS011;23726;52.520;13.434;2022-09-13T05:40:37;8.88;;;7.97;;
37885;SDS011;23726;52.520;13.434;2022-09-13T05:43:04;10.60;;;9.50;;
37885;SDS011;23726;52.520;13.434;2022-09-13T05:45:29;9.60;;;8.57;;
37885;SDS011;23726;52.520;13.434;2022-09-13T05:47:55;12.82;;;8.70;;
37885;SDS011;23726;52.520;13.434;2022-09-13T05:50:20;7.22;;;6.53;;
37885;SDS011;23726;52.520;13.434;2022-09-13T05:52:50;12.13;;;10.88;;
37885;SDS011;23726;52.520;13.434;2022-09-13T05:55:20;8.88;;;7.97;;
37885;SDS011;23726;52.520;13.434;2022-09-13T05:57:46;9.13;;;8.00;;
37885;SDS011;23726;52.520;13.434;2022-09-13T06:00:12;8.02;;;6.82;;
37885;SDS011;23726;52.520;13.434;2022-09-13T06:02:39;7.43;;;6.60;;
37885;SDS011;23726;52.520;13.434;2022-09-13T06:05:06;7.32;;;6.20;;
37885;SDS011;23726;52.520;13.434;2022-09-13T06:07:37;6.75;;;5.90;;
37885;SDS011;23726;52.520;13.434;2022-09-13T06:10:04;7.30;;;6.53;;
37885;SDS011;23726;52.520;13.434;2022-09-13T06:12:30;9.82;;;7.20;;
37885;SDS011;23726;52.520;13.434;2022-09-13T06:14:55;8.15;;;6.78;;
37885;SDS011;23726;52.520;13.434;2022-09-13T06:17:21;8.57;;;7.00;;
37885;SDS011;23726;52.520;13.434;2022-09-13T06:19:46;9.27;;;6.72;;
37885;SDS011;23726;52.520;13.434;2022-09-13T06:22:12;8.23;;;6.85;;
37885;SDS011;23726;52.520;13.434;2022-09-13T06:24:37;9.50;;;8.25;;
37885;SDS011;23726;52.520;13.434;2022-09-13T06:27:04;11.48;;;9.13;;
37885;SDS011;23726;52.520;13.434;2022-09-13T06:29:30;9.25;;;7.82;;
37885;SDS011;23726;52.520;13.434;2022-09-13T06:31:55;10.57;;;8.85;;
37885;SDS011;23726;52.520;13.434;2022-09-13T06:34:21;11.07;;;8.63;;
37885;SDS011;23726;52.520;13.434;2022-09-13T06:36:46;9.23;;;7.40;;
37885;SDS011;23726;52.520;13.434;2022-09-13T06:39:12;12.70;;;9.80;;
37885;SDS011;23726;52.520;13.434;2022-09-13T06:41:38;10.73;;;9.40;;
37885;SDS011;23726;52.520;13.434;2022-09-13T06:44:03;9.40;;;7.85;;
37885;SDS011;23726;52.520;13.434;2022-09-13T06:46:29;13.88;;;8.75;;
37885;SDS011;23726;52.520;13.434;2022-09-13T06:49:03;10.18;;;7.30;;
37885;SDS011;23726;52.520;13.434;2022-09-13T06:51:31;13.18;;;7.30;;
37885;SDS011;23726;52.520;13.434;2022-09-13T06:53:57;8.05;;;6.43;;
37885;SDS011;23726;52.520;13.434;2022-09-13T06:58:57;9.52;;;6.57;;
37885;SDS011;23726;52.520;13.434;2022-09-13T07:01:25;7.80;;;6.50;;
37885;SDS011;23726;52.520;13.434;2022-09-13T07:04:00;8.02;;;6.70;;
37885;SDS011;23726;52.520;13.434;2022-09-13T07:06:28;7.13;;;6.20;;
37885;SDS011;23726;52.520;13.434;2022-09-13T07:08:56;7.47;;;6.57;;
37885;SDS011;23726;52.520;13.434;2022-09-13T07:11:23;7.15;;;6.45;;
37885;SDS011;23726;52.520;13.434;2022-09-13T07:13:51;7.43;;;6.55;;
37885;SDS011;23726;52.520;13.434;2022-09-13T07:16:18;9.23;;;6.32;;
37885;SDS011;23726;52.520;13.434;2022-09-13T07:18:49;7.40;;;6.10;;
37885;SDS011;23726;52.520;13.434;2022-09-13T07:21:16;6.70;;;5.85;;
37885;SDS011;23726;52.520;13.434;2022-09-13T07:23:42;7.65;;;6.38;;
37885;SDS011;23726;52.520;13.434;2022-09-13T07:26:09;6.70;;;5.97;;
37885;SDS011;23726;52.520;13.434;2022-09-13T07:28:35;6.68;;;5.97;;
37885;SDS011;23726;52.520;13.434;2022-09-13T07:31:04;6.95;;;6.15;;
37885;SDS011;23726;52.520;13.434;2022-09-13T07:33:30;8.18;;;6.43;;
37885;SDS011;23726;52.520;13.434;2022-09-13T07:35:56;7.53;;;5.65;;
37885;SDS011;23726;52.520;13.434;2022-09-13T07:38:21;7.18;;;5.63;;
37885;SDS011;23726;52.520;13.434;2022-09-13T07:40:57;9.18;;;6.00;;
37885;SDS011;23726;52.520;13.434;2022-09-13T07:43:23;7.65;;;5.78;;
37885;SDS011;23726;52.520;13.434;2022-09-13T07:45:56;7.60;;;5.72;;
37885;SDS011;23726;52.520;13.434;2022-09-13T07:48:23;9.25;;;5.68;;
37885;SDS011;23726;52.520;13.434;2022-09-13T07:51:00;10.85;;;6.10;;
37885;SDS011;23726;52.520;13.434;2022-09-13T07:53:45;7.60;;;5.63;;
37885;SDS011;23726;52.520;13.434;2022-09-13T07:56:17;9.05;;;6.15;;
37885;SDS011;23726;52.520;13.434;2022-09-13T07:58:46;6.90;;;5.65;;
37885;SDS011;23726;52.520;13.434;2022-09-13T08:01:25;9.50;;;5.80;;
37885;SDS011;23726;52.520;13.434;2022-09-13T08:04:00;7.90;;;5.50;;
37885;SDS011;23726;52.520;13.434;2022-09-13T08:06:28;8.43;;;5.63;;
37885;SDS011;23726;52.520;13.434;2022-09-13T08:08:56;10.77;;;5.90;;
37885;SDS011;23726;52.520;13.434;2022-09-13T08:11:23;5.60;;;5.10;;
37885;SDS011;23726;52.520;13.434;2022-09-13T08:13:54;6.18;;;5.15;;
37885;SDS011;23726;52.520;13.434;2022-09-13T08:16:20;6.93;;;5.28;;
37885;SDS011;23726;52.520;13.434;2022-09-13T08:18:47;6.05;;;5.38;;
37885;SDS011;23726;52.520;13.434;2022-09-13T08:21:15;6.82;;;5.68;;
37885;SDS011;23726;52.520;13.434;2022-09-13T08:23:40;5.93;;;5.20;;
37885;SDS011;23726;52.520;13.434;2022-09-13T08:26:07;6.30;;;5.68;;
37885;SDS011;23726;52.520;13.434;2022-09-13T08:28:34;6.47;;;5.47;;
37885;SDS011;23726;52.520;13.434;2022-09-13T08:31:04;6.28;;;5.40;;
37885;SDS011;23726;52.520;13.434;2022-09-13T08:33:31;6.32;;;5.60;;
37885;SDS011;23726;52.520;13.434;2022-09-13T08:35:57;7.85;;;5.70;;
37885;SDS011;23726;52.520;13.434;2022-09-13T08:38:23;6.18;;;5.60;;
37885;SDS011;23726;52.520;13.434;2022-09-13T08:40:49;6.38;;;5.78;;
37885;SDS011;23726;52.520;13.434;2022-09-13T08:44:07;6.63;;;5.90;;
37885;SDS011;23726;52.520;13.434;2022-09-13T08:46:26;6.38;;;5.68;;
37885;SDS011;23726;52.520;13.434;2022-09-13T08:48:58;6.88;;;6.18;;
37885;SDS011;23726;52.520;13.434;2022-09-13T08:53:57;7.50;;;5.80;;
37885;SDS011;23726;52.520;13.434;2022-09-13T08:59:25;7.03;;;5.75;;
37885;SDS011;23726;52.520;13.434;2022-09-13T09:02:40;6.70;;;5.55;;
37885;SDS011;23726;52.520;13.434;2022-09-13T09:05:19;6.88;;;6.18;;
37885;SDS011;23726;52.520;13.434;2022-09-13T09:07:48;10.27;;;6.60;;
37885;SDS011;23726;52.520;13.434;2022-09-13T09:12:49;6.38;;;5.78;;
37885;SDS011;23726;52.520;13.434;2022-09-13T09:15:33;9.43;;;5.85;;
37885;SDS011;23726;52.520;13.434;2022-09-13T09:18:17;6.80;;;5.82;;
37885;SDS011;23726;52.520;13.434;2022-09-13T09:20:54;9.25;;;5.85;;
37885;SDS011;23726;52.520;13.434;2022-09-13T09:23:34;8.98;;;6.35;;
37885;SDS011;23726;52.520;13.434;2022-09-13T09:26:22;10.63;;;6.00;;
37885;SDS011;23726;52.520;13.434;2022-09-13T09:29:04;9.40;;;5.75;;
37885;SDS011;23726;52.520;13.434;2022-09-13T09:39:38;57.53;;;18.65;;
37885;SDS011;23726;52.520;13.434;2022-09-13T09:42:09;298.13;;;63.63;;
37885;SDS011;23726;52.520;13.434;2022-09-13T09:44:38;156.80;;;33.05;;
37885;SDS011;23726;52.520;13.434;2022-09-13T09:47:15;143.68;;;35.13;;
37885;SDS011;23726;52.520;13.434;2022-09-13T09:49:45;120.75;;;31.17;;
37885;SDS011;23726;52.520;13.434;2022-09-13T09:52:34;174.00;;;40.50;;
37885;SDS011;23726;52.520;13.434;2022-09-13T09:55:16;223.02;;;47.67;;
37885;SDS011;23726;52.520;13.434;2022-09-13T09:58:03;200.53;;;42.30;;
37885;SDS011;23726;52.520;13.434;2022-09-13T10:00:32;184.82;;;42.00;;
37885;SDS011;23726;52.520;13.434;2022-09-13T10:03:19;152.20;;;36.70;;
37885;SDS011;23726;52.520;13.434;2022-09-13T10:05:50;162.52;;;36.30;;
37885;SDS011;23726;52.520;13.434;2022-09-13T10:08:25;144.30;;;36.15;;
37885;SDS011;23726;52.520;13.434;2022-09-13T10:10:55;136.17;;;36.13;;
37885;SDS011;23726;52.520;13.434;2022-09-13T10:13:24;126.05;;;36.85;;
37885;SDS011;23726;52.520;13.434;2022-09-13T10:15:54;127.20;;;34.88;;
37885;SDS011;23726;52.520;13.434;2022-09-13T10:18:25;125.57;;;33.75;;
37885;SDS011;23726;52.520;13.434;2022-09-13T10:21:06;128.82;;;34.72;;
37885;SDS011;23726;52.520;13.434;2022-09-13T10:23:41;121.03;;;32.20;;
37885;SDS011;23726;52.520;13.434;2022-09-13T10:26:09;108.50;;;32.38;;
37885;SDS011;23726;52.520;13.434;2022-09-13T10:28:53;127.95;;;33.17;;
37885;SDS011;23726;52.520;13.434;2022-09-13T10:31:47;118.70;;;31.63;;
37885;SDS011;23726;52.520;13.434;2022-09-13T10:34:19;116.80;;;32.50;;
37885;SDS011;23726;52.520;13.434;2022-09-13T10:36:53;121.38;;;32.40;;
37885;SDS011;23726;52.520;13.434;2022-09-13T10:39:22;117.95;;;31.10;;
37885;SDS011;23726;52.520;13.434;2022-09-13T10:42:00;108.18;;;31.92;;
37885;SDS011;23726;52.520;13.434;2022-09-13T10:47:05;101.28;;;30.40;;
37885;SDS011;23726;52.520;13.434;2022-09-13T10:49:50;100.80;;;30.33;;
37885;SDS011;23726;52.520;13.434;2022-09-13T10:52:24;94.40;;;28.90;;
37885;SDS011;23726;52.520;13.434;2022-09-13T10:54:53;97.78;;;29.73;;
37885;SDS011;23726;52.520;13.434;2022-09-13T10:57:33;105.53;;;29.90;;
37885;SDS011;23726;52.520;13.434;2022-09-13T11:00:04;92.22;;;28.42;;
37885;SDS011;23726;52.520;13.434;2022-09-13T11:05:25;87.70;;;26.58;;
37885;SDS011;23726;52.520;13.434;2022-09-13T11:11:02;78.53;;;25.75;;
37885;SDS011;23726;52.520;13.434;2022-09-13T11:27:51;71.63;;;24.85;;
37885;SDS011;23726;52.520;13.434;2022-09-13T11:30:34;70.38;;;24.40;;
37885;SDS011;23726;52.520;13.434;2022-09-13T11:35:53;65.32;;;22.60;;
37885;SDS011;23726;52.520;13.434;2022-09-13T11:38:33;66.07;;;23.58;;
37885;SDS011;23726;52.520;13.434;2022-09-13T11:52:13;63.00;;;22.50;;
37885;SDS011;23726;52.520;13.434;2022-09-13T11:57:57;61.47;;;21.58;;
37885;SDS011;23726;52.520;13.434;2022-09-13T12:00:29;61.30;;;22.00;;
37885;SDS011;23726;52.520;13.434;2022-09-13T12:05:39;56.45;;;20.58;;
37885;SDS011;23726;52.520;13.434;2022-09-13T12:08:15;54.22;;;20.40;;
37885;SDS011;23726;52.520;13.434;2022-09-13T12:13:25;55.25;;;19.25;;
37885;SDS011;23726;52.520;13.434;2022-09-13T12:16:00;55.28;;;20.10;;
37885;SDS011;23726;52.520;13.434;2022-09-13T12:18:33;57.42;;;19.48;;
37885;SDS011;23726;52.520;13.434;2022-09-13T12:21:09;49.92;;;19.63;;
37885;SDS011;23726;52.520;13.434;2022-09-13T12:23:42;49.92;;;19.25;;
37885;SDS011;23726;52.520;13.434;2022-09-13T12:26:51;47.85;;;19.33;;
37885;SDS011;23726;52.520;13.434;2022-09-13T12:29:24;47.05;;;18.20;;
37885;SDS011;23726;52.520;13.434;2022-09-13T12:32:05;45.40;;;19.92;;
37885;SDS011;23726;52.520;13.434;2022-09-13T12:43:17;44.33;;;16.98;;
37885;SDS011;23726;52.520;13.434;2022-09-13T12:49:12;36.08;;;16.75;;
37885;SDS011;23726;52.520;13.434;2022-09-13T12:54:47;42.15;;;16.92;;
37885;SDS011;23726;52.520;13.434;2022-09-13T12:57:24;41.47;;;16.80;;
37885;SDS011;23726;52.520;13.434;2022-09-13T13:00:38;37.33;;;15.73;;
37885;SDS011;23726;52.520;13.434;2022-09-13T13:03:21;34.13;;;15.73;;
37885;SDS011;23726;52.520;13.434;2022-09-13T13:06:06;41.33;;;16.55;;
37885;SDS011;23726;52.520;13.434;2022-09-13T13:08:45;36.83;;;16.38;;
37885;SDS011;23726;52.520;13.434;2022-09-13T13:11:15;39.70;;;16.00;;
37885;SDS011;23726;52.520;13.434;2022-09-13T13:13:56;32.90;;;15.23;;
37885;SDS011;23726;52.520;13.434;2022-09-13T13:16:35;35.45;;;15.77;;
37885;SDS011;23726;52.520;13.434;2022-09-13T13:19:04;37.75;;;14.90;;
37885;SDS011;23726;52.520;13.434;2022-09-13T13:21:48;32.63;;;15.38;;
37885;SDS011;23726;52.520;13.434;2022-09-13T13:29:15;33.10;;;14.80;;
37885;SDS011;23726;52.520;13.434;2022-09-13T13:32:07;34.25;;;14.75;;
37885;SDS011;23726;52.520;13.434;2022-09-13T13:34:36;34.97;;;14.90;;
37885;SDS011;23726;52.520;13.434;2022-09-13T13:39:37;28.77;;;13.88;;
37885;SDS011;23726;52.520;13.434;2022-09-13T13:49:52;31.08;;;13.80;;
37885;SDS011;23726;52.520;13.434;2022-09-13T13:52:38;31.92;;;13.82;;
37885;SDS011;23726;52.520;13.434;2022-09-13T14:01:13;28.45;;;13.73;;
37885;SDS011;23726;52.520;13.434;2022-09-13T14:09:27;26.05;;;13.27;;
37885;SDS011;23726;52.520;13.434;2022-09-13T14:12:09;28.50;;;12.63;;
37885;SDS011;23726;52.520;13.434;2022-09-13T14:17:47;25.70;;;12.85;;
37885;SDS011;23726;52.520;13.434;2022-09-13T14:23:26;23.00;;;12.38;;
37885;SDS011;23726;52.520;13.434;2022-09-13T14:25:54;24.50;;;12.55;;
37885;SDS011;23726;52.520;13.434;2022-09-13T14:28:21;24.13;;;11.57;;
37885;SDS011;23726;52.520;13.434;2022-09-13T14:30:50;26.77;;;13.23;;
37885;SDS011;23726;52.520;13.434;2022-09-13T14:33:24;25.33;;;12.13;;
37885;SDS011;23726;52.520;13.434;2022-09-13T14:35:57;23.20;;;11.93;;
37885;SDS011;23726;52.520;13.434;2022-09-13T14:38:26;22.30;;;11.82;;
37885;SDS011;23726;52.520;13.434;2022-09-13T14:41:10;24.05;;;12.15;;
37885;SDS011;23726;52.520;13.434;2022-09-13T14:43:38;23.40;;;11.88;;
37885;SDS011;23726;52.520;13.434;2022-09-13T14:46:09;24.15;;;11.63;;
37885;SDS011;23726;52.520;13.434;2022-09-13T14:48:52;25.65;;;12.25;;
37885;SDS011;23726;52.520;13.434;2022-09-13T14:51:25;26.17;;;12.83;;
37885;SDS011;23726;52.520;13.434;2022-09-13T14:53:58;20.65;;;11.25;;
37885;SDS011;23726;52.520;13.434;2022-09-13T14:56:30;22.08;;;12.20;;
37885;SDS011;23726;52.520;13.434;2022-09-13T14:59:03;20.35;;;10.65;;
37885;SDS011;23726;52.520;13.434;2022-09-13T15:01:36;20.92;;;11.85;;
37885;SDS011;23726;52.520;13.434;2022-09-13T15:04:02;21.17;;;11.40;;
37885;SDS011;23726;52.520;13.434;2022-09-13T15:06:31;21.88;;;11.77;;
37885;SDS011;23726;52.520;13.434;2022-09-13T15:09:00;22.33;;;10.98;;
37885;SDS011;23726;52.520;13.434;2022-09-13T15:14:20;20.73;;;10.57;;
37885;SDS011;23726;52.520;13.434;2022-09-13T15:17:10;23.25;;;10.70;;
37885;SDS011;23726;52.520;13.434;2022-09-13T15:19:48;18.08;;;10.20;;
37885;SDS011;23726;52.520;13.434;2022-09-13T15:22:22;21.15;;;10.63;;
37885;SDS011;23726;52.520;13.434;2022-09-13T15:24:54;18.00;;;10.32;;
37885;SDS011;23726;52.520;13.434;2022-09-13T15:27:29;18.45;;;10.63;;
37885;SDS011;23726;52.520;13.434;2022-09-13T15:29:57;18.75;;;10.60;;
37885;SDS011;23726;52.520;13.434;2022-09-13T15:32:30;18.15;;;10.90;;
37885;SDS011;23726;52.520;13.434;2022-09-13T15:40:59;17.65;;;10.10;;
37885;SDS011;23726;52.520;13.434;2022-09-13T15:43:34;16.55;;;9.68;;
37885;SDS011;23726;52.520;13.434;2022-09-13T15:46:00;16.38;;;10.43;;
37885;SDS011;23726;52.520;13.434;2022-09-13T15:48:30;17.10;;;9.48;;
37885;SDS011;23726;52.520;13.434;2022-09-13T15:51:05;17.23;;;10.20;;
37885;SDS011;23726;52.520;13.434;2022-09-13T15:53:33;18.50;;;10.23;;
37885;SDS011;23726;52.520;13.434;2022-09-13T15:56:00;19.13;;;10.27;;
37885;SDS011;23726;52.520;13.434;2022-09-13T15:58:28;16.00;;;9.38;;
37885;SDS011;23726;52.520;13.434;2022-09-13T16:00:54;17.67;;;9.98;;
37885;SDS011;23726;52.520;13.434;2022-09-13T16:03:20;16.55;;;9.82;;
37885;SDS011;23726;52.520;13.434;2022-09-13T16:05:45;16.52;;;9.73;;
37885;SDS011;23726;52.520;13.434;2022-09-13T16:08:11;17.33;;;10.05;;
37885;SDS011;23726;52.520;13.434;2022-09-13T16:10:36;17.60;;;9.77;;
37885;SDS011;23726;52.520;13.434;2022-09-13T16:13:02;15.80;;;9.52;;
37885;SDS011;23726;52.520;13.434;2022-09-13T16:15:28;15.13;;;9.43;;
37885;SDS011;23726;52.520;13.434;2022-09-13T16:17:54;15.82;;;9.65;;
37885;SDS011;23726;52.520;13.434;2022-09-13T16:20:19;14.60;;;8.63;;
37885;SDS011;23726;52.520;13.434;2022-09-13T16:22:45;13.60;;;9.40;;
37885;SDS011;23726;52.520;13.434;2022-09-13T16:25:11;14.10;;;9.35;;
37885;SDS011;23726;52.520;13.434;2022-09-13T16:27:38;16.92;;;9.57;;
37885;SDS011;23726;52.520;13.434;2022-09-13T16:30:05;15.13;;;9.32;;
37885;SDS011;23726;52.520;13.434;2022-09-13T16:32:31;14.52;;;9.15;;
37885;SDS011;23726;52.520;13.434;2022-09-13T16:34:58;16.15;;;9.15;;
37885;SDS011;23726;52.520;13.434;2022-09-13T16:37:23;15.52;;;9.45;;
37885;SDS011;23726;52.520;13.434;2022-09-13T16:39:49;14.73;;;8.88;;
37885;SDS011;23726;52.520;13.434;2022-09-13T16:42:14;13.88;;;9.30;;
37885;SDS011;23726;52.520;13.434;2022-09-13T16:44:42;15.15;;;9.27;;
37885;SDS011;23726;52.520;13.434;2022-09-13T16:47:09;16.52;;;9.52;;
37885;SDS011;23726;52.520;13.434;2022-09-13T16:49:34;16.13;;;9.85;;
37885;SDS011;23726;52.520;13.434;2022-09-13T16:52:00;13.75;;;9.40;;
37885;SDS011;23726;52.520;13.434;2022-09-13T16:54:27;13.30;;;9.10;;
37885;SDS011;23726;52.520;13.434;2022-09-13T16:56:55;12.55;;;8.43;;
37885;SDS011;23726;52.520;13.434;2022-09-13T16:59:22;13.65;;;8.85;;
37885;SDS011;23726;52.520;13.434;2022-09-13T17:01:47;15.60;;;9.07;;
37885;SDS011;23726;52.520;13.434;2022-09-13T17:04:13;12.23;;;8.18;;
37885;SDS011;23726;52.520;13.434;2022-09-13T17:06:39;14.13;;;8.55;;
37885;SDS011;23726;52.520;13.434;2022-09-13T17:09:05;13.60;;;8.23;;
37885;SDS011;23726;52.520;13.434;2022-09-13T17:11:32;13.25;;;8.32;;
37885;SDS011;23726;52.520;13.434;2022-09-13T17:14:00;11.57;;;8.50;;
37885;SDS011;23726;52.520;13.434;2022-09-13T17:16:28;13.32;;;8.07;;
37885;SDS011;23726;52.520;13.434;2022-09-13T17:18:58;12.10;;;8.27;;
37885;SDS011;23726;52.520;13.434;2022-09-13T17:21:27;13.30;;;7.95;;
37885;SDS011;23726;52.520;13.434;2022-09-13T17:23:53;11.90;;;7.93;;
37885;SDS011;23726;52.520;13.434;2022-09-13T17:26:18;11.45;;;8.18;;
37885;SDS011;23726;52.520;13.434;2022-09-13T17:28:44;13.65;;;8.50;;